createdAt,value
2022-10-02T00:01:16.773Z,97463.11
2022-10-02T00:04:52.851Z,97463.91
2022-10-02T00:08:42.674Z,97463.67
2022-10-02T00:12:09.943Z,97462.61
2022-10-02T00:15:42.297Z,97466.70
2022-10-02T00:19:19.085Z,97468.66
2022-10-02T00:23:36.327Z,97470.77
2022-10-02T00:27:05.609Z,97472.46
2022-10-02T00:31:01.791Z,97473.42
2022-10-02T00:34:48.423Z,97478.38
2022-10-02T00:38:29.275Z,97476.86
2022-10-02T00:42:11.259Z,97486.73
2022-10-02T00:46:04.076Z,97490.08
2022-10-02T00:49:46.374Z,97490.33
2022-10-02T00:53:38.881Z,97494.44
2022-10-02T00:57:27.376Z,97499.36
2022-10-02T01:01:02.529Z,97505.73
2022-10-02T01:04:31.844Z,97503.14
2022-10-02T01:08:02.591Z,97505.16
2022-10-02T01:11:39.821Z,97510.59
2022-10-02T01:15:43.959Z,97510.56
2022-10-02T01:19:05.835Z,97511.47
2022-10-02T01:23:27.876Z,97514.10
2022-10-02T01:27:07.293Z,97519.17
2022-10-02T01:30:51.263Z,97517.03
2022-10-02T01:34:30.878Z,97517.98
2022-10-02T01:37:54.117Z,97524.51
2022-10-02T01:41:47.181Z,97526.73
2022-10-02T01:45:09.332Z,97535.29
2022-10-02T01:48:44.674Z,97538.18
2022-10-02T01:53:14.536Z,97540.80
2022-10-02T01:57:28.999Z,97539.61
2022-10-02T02:01:16.107Z,97543.00
2022-10-02T02:05:16.388Z,97543.08
2022-10-02T02:09:15.941Z,97552.30
2022-10-02T02:13:06.058Z,97553.31
2022-10-02T02:16:40.719Z,97557.16
2022-10-02T02:20:36.125Z,97555.48
2022-10-02T02:24:25.629Z,97552.20
2022-10-02T02:27:53.054Z,97558.21
2022-10-02T02:31:29.797Z,97555.33
2022-10-02T02:35:26.856Z,97558.39
2022-10-02T02:38:54.920Z,97560.95
2022-10-02T02:42:29.872Z,97561.98
2022-10-02T02:46:16.661Z,97569.87
2022-10-02T02:49:52.990Z,97570.48
2022-10-02T02:53:20.462Z,97569.41
2022-10-02T02:56:53.126Z,97576.73
2022-10-02T03:00:47.270Z,97579.45
2022-10-02T03:04:13.392Z,97583.02
2022-10-02T03:07:55.196Z,97587.03
2022-10-02T03:11:33.379Z,97590.77
2022-10-02T03:15:13.737Z,97599.92
2022-10-02T03:19:05.733Z,97603.39
2022-10-02T03:22:44.998Z,97605.71
2022-10-02T03:26:30.284Z,97608.33
2022-10-02T03:30:04.017Z,97606.66
2022-10-02T03:33:30.748Z,97605.66
2022-10-02T03:37:28.474Z,97612.50
2022-10-02T03:40:48.820Z,97615.59
2022-10-02T03:44:25.726Z,97619.31
2022-10-02T03:48:02.343Z,97624.30
2022-10-02T03:51:39.371Z,97633.73
2022-10-02T03:55:38.515Z,97636.30
2022-10-02T03:59:45.682Z,97637.44
2022-10-02T04:03:14.689Z,97645.45
2022-10-02T04:07:05.701Z,97646.90
2022-10-02T04:10:52.659Z,97650.89
2022-10-02T04:14:29.115Z,97655.46
2022-10-02T04:18:31.881Z,97656.60
2022-10-02T04:21:55.483Z,97660.27
2022-10-02T04:25:38.534Z,97664.34
2022-10-02T04:29:20.856Z,97671.39
2022-10-02T04:32:42.733Z,97682.09
2022-10-02T04:37:08.256Z,97685.85
2022-10-02T04:40:50.673Z,97692.69
2022-10-02T04:45:12.981Z,97700.41
2022-10-02T04:48:52.059Z,97707.17
2022-10-02T04:53:17.019Z,97708.86
2022-10-02T04:57:09.484Z,97716.73
2022-10-02T05:00:52.814Z,97719.59
2022-10-02T05:04:41.826Z,97724.52
2022-10-02T05:08:56.920Z,97724.33
2022-10-02T05:12:23.287Z,97726.29
2022-10-02T05:16:32.042Z,97724.61
2022-10-02T05:20:21.351Z,97730.06
2022-10-02T05:24:06.215Z,97737.08
2022-10-02T05:28:05.168Z,97749.12
2022-10-02T05:31:43.192Z,97746.73
2022-10-02T05:35:38.761Z,97756.10
2022-10-02T05:39:23.023Z,97756.67
2022-10-02T05:43:06.682Z,97757.48
2022-10-02T05:46:37.807Z,97759.73
2022-10-02T05:50:11.780Z,97760.98
2022-10-02T05:53:59.017Z,97769.88
2022-10-02T05:57:20.745Z,97774.27
2022-10-02T06:01:06.302Z,97773.33
2022-10-02T06:05:13.166Z,97780.68
2022-10-02T06:09:10.908Z,97782.04
2022-10-02T06:12:44.616Z,97794.45
2022-10-02T06:16:19.374Z,97795.52
2022-10-02T06:20:13.978Z,97795.71
2022-10-02T06:23:46.550Z,97802.04
2022-10-02T06:27:37.971Z,97808.78
2022-10-02T06:31:27.055Z,97808.33
2022-10-02T06:34:49.354Z,97814.55
2022-10-02T06:39:12.475Z,97817.63
2022-10-02T06:42:55.192Z,97819.08
2022-10-02T06:46:23.186Z,97824.03
2022-10-02T06:50:19.473Z,97826.59
2022-10-02T06:53:52.967Z,97826.11
2022-10-02T06:57:29.777Z,97829.17
2022-10-02T07:01:55.001Z,97830.14
2022-10-02T07:05:55.287Z,97831.70
2022-10-02T07:09:16.469Z,97843.16
2022-10-02T07:13:44.607Z,97839.48
2022-10-02T07:17:25.691Z,97841.29
2022-10-02T07:21:17.413Z,97842.71
2022-10-02T07:24:41.322Z,97838.30
2022-10-02T07:28:50.629Z,97843.58
2022-10-02T07:32:48.787Z,97846.28
2022-10-02T07:37:05.974Z,97846.59
2022-10-02T07:40:48.417Z,97849.91
2022-10-02T07:44:31.738Z,97846.13
2022-10-02T07:48:17.533Z,97849.20
2022-10-02T07:52:06.596Z,97849.36
2022-10-02T07:55:27.885Z,97846.58
2022-10-02T07:59:11.126Z,97847.76
2022-10-02T08:03:04.487Z,97848.96
2022-10-02T08:06:46.506Z,97850.38
2022-10-02T08:10:31.035Z,97860.34
2022-10-02T08:14:01.085Z,97850.05
2022-10-02T08:18:10.803Z,97852.21
2022-10-02T08:22:21.295Z,97850.63
2022-10-02T08:26:26.110Z,97853.64
2022-10-02T08:30:07.979Z,97855.64
2022-10-02T08:33:31.658Z,97850.65
2022-10-02T08:37:32.905Z,97849.04
2022-10-02T08:41:16.136Z,97848.14
2022-10-02T08:45:15.519Z,97850.22
2022-10-02T08:49:25.018Z,97849.84
2022-10-02T08:53:16.655Z,97851.86
2022-10-02T08:56:49.414Z,97850.33
2022-10-02T09:00:38.554Z,97853.64
2022-10-02T09:04:28.473Z,97856.45
2022-10-02T09:08:09.131Z,97852.77
2022-10-02T09:12:37.353Z,97846.24
2022-10-02T09:16:19.473Z,97840.90
2022-10-02T09:20:01.349Z,97838.08
2022-10-02T09:23:25.804Z,97828.66
2022-10-02T09:27:45.249Z,97825.98
2022-10-02T09:31:21.005Z,97822.34
2022-10-02T09:35:02.244Z,97818.95
2022-10-02T09:38:40.404Z,97818.05
2022-10-02T09:42:17.245Z,97814.83
2022-10-02T09:45:54.104Z,97814.23
2022-10-02T09:49:42.902Z,97813.06
2022-10-02T09:53:29.212Z,97809.61
2022-10-02T09:57:11.676Z,97802.80
2022-10-02T10:00:52.281Z,97810.62
2022-10-02T10:05:06.467Z,97806.77
2022-10-02T10:08:54.966Z,97802.27
2022-10-02T10:12:49.610Z,97804.82
2022-10-02T10:16:32.943Z,97805.85
2022-10-02T10:20:26.437Z,97807.16
2022-10-02T10:24:16.962Z,97800.44
2022-10-02T10:28:06.377Z,97798.33
2022-10-02T10:32:13.154Z,97798.69
2022-10-02T10:36:35.275Z,97805.92
2022-10-02T10:40:25.125Z,97800.70
2022-10-02T10:44:17.787Z,97791.81
2022-10-02T10:47:50.305Z,97777.77
2022-10-02T10:51:50.108Z,97773.77
2022-10-02T10:55:46.507Z,97771.52
2022-10-02T10:59:27.356Z,97765.45
2022-10-02T11:03:04.775Z,97761.12
2022-10-02T11:06:58.811Z,97755.45
2022-10-02T11:10:43.200Z,97753.50
2022-10-02T11:14:41.693Z,97760.43
2022-10-02T11:18:40.075Z,97759.65
2022-10-02T11:22:25.580Z,97755.22
2022-10-02T11:26:02.291Z,97757.98
2022-10-02T11:29:42.728Z,97747.66
2022-10-02T11:33:13.430Z,97740.91
2022-10-02T11:37:09.706Z,97745.01
2022-10-02T11:41:04.982Z,97747.39
2022-10-02T11:45:03.615Z,97742.53
2022-10-02T11:48:49.751Z,97744.11
2022-10-02T11:52:36.368Z,97737.73
2022-10-02T11:56:10.502Z,97737.55
2022-10-02T11:59:50.876Z,97730.13
2022-10-02T12:04:08.922Z,97729.59
2022-10-02T12:07:41.642Z,97729.69
2022-10-02T12:11:36.436Z,97733.60
2022-10-02T12:15:16.812Z,97736.10
2022-10-02T12:19:21.405Z,97732.77
2022-10-02T12:23:16.123Z,97727.64
2022-10-02T12:27:10.892Z,97729.17
2022-10-02T12:30:49.848Z,97728.09
2022-10-02T12:34:38.582Z,97721.69
2022-10-02T12:38:37.817Z,97720.57
2022-10-02T12:42:11.908Z,97711.74
2022-10-02T12:46:27.399Z,97712.07
2022-10-02T12:50:09.732Z,97708.60
2022-10-02T12:53:52.025Z,97706.56
2022-10-02T12:57:45.422Z,97704.98
2022-10-02T13:01:30.874Z,97706.29
2022-10-02T13:05:21.058Z,97710.51
2022-10-02T13:09:17.746Z,97706.43
2022-10-02T13:12:51.024Z,97710.95
2022-10-02T13:16:34.022Z,97707.80
2022-10-02T13:20:01.319Z,97698.61
2022-10-02T13:24:00.403Z,97697.67
2022-10-02T13:27:42.871Z,97689.92
2022-10-02T13:32:01.633Z,97691.13
2022-10-02T13:35:32.536Z,97682.48
2022-10-02T13:39:22.461Z,97677.20
2022-10-02T13:43:41.760Z,97676.94
2022-10-02T13:47:11.883Z,97673.22
2022-10-02T13:51:01.832Z,97674.41
2022-10-02T13:54:53.724Z,97674.08
2022-10-02T13:58:35.601Z,97674.73
2022-10-02T14:02:33.612Z,97675.88
2022-10-02T14:06:23.169Z,97683.79
2022-10-02T14:09:51.541Z,97682.93
2022-10-02T14:13:42.452Z,97679.58
2022-10-02T14:17:31.902Z,97677.36
2022-10-02T14:21:36.437Z,97668.49
2022-10-02T14:25:15.814Z,97667.99
2022-10-02T14:28:48.326Z,97659.27
2022-10-02T14:32:49.503Z,97658.70
2022-10-02T14:36:18.298Z,97657.36
2022-10-02T14:39:49.216Z,97657.50
2022-10-02T14:44:06.819Z,97659.98
2022-10-02T14:47:46.419Z,97655.97
2022-10-02T14:51:46.809Z,97653.38
2022-10-02T14:55:34.169Z,97653.52
2022-10-02T14:59:51.785Z,97655.85
2022-10-02T15:03:35.437Z,97656.44
2022-10-02T15:07:07.901Z,97665.25
2022-10-02T15:10:38.576Z,97673.57
2022-10-02T15:14:49.258Z,97688.41
2022-10-02T15:18:33.520Z,97709.48
2022-10-02T15:22:00.889Z,97715.35
2022-10-02T15:25:59.699Z,97717.79
2022-10-02T15:29:35.710Z,97687.17
2022-10-02T15:33:11.244Z,97686.02
2022-10-02T15:36:37.759Z,97679.64
2022-10-02T15:40:47.120Z,97676.30
2022-10-02T15:44:32.378Z,97676.11
2022-10-02T15:48:06.136Z,97679.80
2022-10-02T15:51:36.224Z,97684.80
2022-10-02T15:55:38.990Z,97679.08
2022-10-02T15:59:31.487Z,97680.38
2022-10-02T16:03:21.283Z,97678.35
2022-10-02T16:07:20.464Z,97678.23
2022-10-02T16:10:54.281Z,97674.67
2022-10-02T16:14:53.886Z,97670.34
2022-10-02T16:18:44.704Z,97667.58
2022-10-02T16:22:46.232Z,97663.77
2022-10-02T16:26:37.435Z,97655.69
2022-10-02T16:30:11.285Z,97647.15
2022-10-02T16:34:25.286Z,97646.67
2022-10-02T16:38:22.025Z,97645.88
2022-10-02T16:41:58.438Z,97646.95
2022-10-02T16:45:36.780Z,97641.84
2022-10-02T16:49:32.057Z,97638.16
2022-10-02T16:53:02.893Z,97637.80
2022-10-02T16:56:58.566Z,97638.30
2022-10-02T17:00:22.846Z,97632.20
2022-10-02T17:04:20.074Z,97628.39
2022-10-02T17:08:18.192Z,97627.23
2022-10-02T17:12:02.456Z,97631.69
2022-10-02T17:15:23.642Z,97630.17
2022-10-02T17:19:18.379Z,97621.30
2022-10-02T17:23:05.682Z,97624.29
2022-10-02T17:26:41.027Z,97626.11
2022-10-02T17:30:24.222Z,97630.80
2022-10-02T17:33:53.719Z,97633.69
2022-10-02T17:38:19.601Z,97632.14
2022-10-02T17:42:19.540Z,97658.11
2022-10-02T17:45:58.313Z,97669.25
2022-10-02T17:49:49.149Z,97666.32
2022-10-02T17:53:43.018Z,97661.46
2022-10-02T17:57:31.173Z,97653.83
2022-10-02T18:01:16.291Z,97653.17
2022-10-02T18:04:58.158Z,97663.61
2022-10-02T18:08:29.818Z,97677.38
2022-10-02T18:12:05.367Z,97690.80
2022-10-02T18:16:10.318Z,97690.23
2022-10-02T18:20:10.935Z,97693.48
2022-10-02T18:24:08.529Z,97694.05
2022-10-02T18:27:31.912Z,97691.52
2022-10-02T18:31:25.499Z,97687.65
2022-10-02T18:35:22.734Z,97678.83
2022-10-02T18:39:03.431Z,97680.79
2022-10-02T18:43:15.617Z,97678.69
2022-10-02T18:46:45.046Z,97677.81
2022-10-02T18:50:30.459Z,97684.18
2022-10-02T18:54:08.067Z,97681.91
2022-10-02T18:57:55.156Z,97683.34
2022-10-02T19:01:38.763Z,97682.06
2022-10-02T19:05:15.879Z,97689.01
2022-10-02T19:09:07.325Z,97688.59
2022-10-02T19:12:31.254Z,97694.56
2022-10-02T19:16:26.496Z,97693.64
2022-10-02T19:20:48.668Z,97695.94
2022-10-02T19:24:36.843Z,97696.41
2022-10-02T19:28:21.300Z,97695.92
2022-10-02T19:31:42.113Z,97693.04
2022-10-02T19:35:28.896Z,97693.10
2022-10-02T19:39:26.053Z,97695.65
2022-10-02T19:42:52.885Z,97695.65
2022-10-02T19:46:34.661Z,97691.26
2022-10-02T19:50:04.970Z,97694.14
2022-10-02T19:54:07.551Z,97700.00
2022-10-02T19:57:40.334Z,97699.19
2022-10-02T20:01:14.013Z,97704.06
2022-10-02T20:04:41.935Z,97706.64
2022-10-02T20:08:42.785Z,97703.58
2022-10-02T20:12:13.432Z,97700.33
2022-10-02T20:16:28.247Z,97703.48
2022-10-02T20:20:14.209Z,97704.51
2022-10-02T20:23:40.079Z,97707.11
2022-10-02T20:27:29.176Z,97716.04
2022-10-02T20:31:17.879Z,97713.27
2022-10-02T20:34:54.173Z,97710.94
2022-10-02T20:38:35.194Z,97705.80
2022-10-02T20:42:22.544Z,97706.88
2022-10-02T20:45:58.638Z,97705.57
2022-10-02T20:49:45.381Z,97706.89
2022-10-02T20:53:24.892Z,97709.98
2022-10-02T20:56:59.485Z,97712.27
2022-10-02T21:00:25.676Z,97718.50
2022-10-02T21:04:56.704Z,97720.08
2022-10-02T21:08:42.045Z,97726.23
2022-10-02T21:13:06.900Z,97720.25
2022-10-02T21:17:05.195Z,97725.46
2022-10-02T21:20:51.238Z,97724.52
2022-10-02T21:24:26.812Z,97728.59
2022-10-02T21:28:13.471Z,97733.44
2022-10-02T21:31:56.549Z,97734.20
2022-10-02T21:35:56.496Z,97730.77
2022-10-02T21:39:23.690Z,97725.63
2022-10-02T21:43:26.125Z,97728.81
2022-10-02T21:47:09.113Z,97732.42
2022-10-02T21:51:12.267Z,97730.14
2022-10-02T21:54:59.635Z,97729.55
2022-10-02T21:58:52.044Z,97736.23
2022-10-02T22:02:47.896Z,97740.12
2022-10-02T22:06:16.409Z,97739.15
2022-10-02T22:09:55.438Z,97743.27
2022-10-02T22:13:31.240Z,97745.95
2022-10-02T22:17:21.677Z,97747.67
2022-10-02T22:20:51.860Z,97748.61
2022-10-02T22:24:44.050Z,97747.16
2022-10-02T22:28:46.223Z,97748.99
2022-10-02T22:32:54.063Z,97749.86
2022-10-02T22:36:42.317Z,97752.19
2022-10-02T22:40:15.506Z,97748.52
2022-10-02T22:43:43.402Z,97750.33
2022-10-02T22:47:45.223Z,97754.96
2022-10-02T22:51:30.786Z,97756.55
2022-10-02T22:55:26.245Z,97759.70
2022-10-02T22:59:14.761Z,97760.93
2022-10-02T23:02:50.329Z,97761.52
2022-10-02T23:06:43.138Z,97763.48
2022-10-02T23:10:35.654Z,97766.72
2022-10-02T23:14:03.139Z,97767.14
2022-10-02T23:17:36.832Z,97765.77
2022-10-02T23:21:13.493Z,97768.20
2022-10-02T23:25:32.728Z,97770.33
2022-10-02T23:29:16.915Z,97771.81
2022-10-02T23:32:41.198Z,97770.30
2022-10-02T23:36:30.668Z,97767.73
2022-10-02T23:40:10.125Z,97769.66
2022-10-02T23:43:38.536Z,97773.85
2022-10-02T23:47:41.515Z,97776.70
2022-10-02T23:51:28.031Z,97774.21
2022-10-02T23:55:20.182Z,97773.00
2022-10-02T23:59:12.612Z,97775.88
